Time;durP1;ratioP1;P1;durP2;ratioP2;P2;SDS_P1;SDS_P2;PMS_P1;PMS_P2;Temp;Humidity;BMP_temperature;BMP_pressure;BME280_temperature;BME280_humidity;BME280_pressure;Samples;Min_cycle;Max_cycle;Signal;HPM_P1;HPM_P2
2022/06/22 00:02:34;;;;;;;5.10;4.17;;;17.00;99.90;;;;;;4968419;28;20727;-58
2022/06/22 00:05:03;;;;;;;5.10;3.30;;;17.00;99.90;;;;;;4955522;28;20232;-58
2022/06/22 00:07:41;;;;;;;6.70;3.63;;;17.00;99.90;;;;;;4968524;28;20226;-57
2022/06/22 00:10:21;;;;;;;6.87;4.03;;;16.90;99.90;;;;;;4961385;28;20283;-57
2022/06/22 00:12:50;;;;;;;6.07;3.50;;;16.80;99.90;;;;;;4949517;29;20228;-58
2022/06/22 00:15:38;;;;;;;7.33;4.03;;;16.70;99.90;;;;;;4966322;28;20211;-58
2022/06/22 00:18:32;;;;;;;4.77;3.83;;;16.60;99.90;;;;;;4950191;28;20326;-57
2022/06/22 00:21:18;;;;;;;7.37;4.03;;;16.50;99.90;;;;;;4962509;28;20209;-57
2022/06/22 00:23:47;;;;;;;9.63;4.37;;;16.50;99.90;;;;;;4967875;28;20197;-57
2022/06/22 00:26:24;;;;;;;5.53;3.90;;;16.40;99.90;;;;;;4965958;28;20200;-58
2022/06/22 00:29:04;;;;;;;7.37;4.23;;;16.40;99.90;;;;;;4967557;28;20194;-58
2022/06/22 00:31:43;;;;;;;6.30;4.67;;;16.40;99.90;;;;;;4960368;28;20242;-58
2022/06/22 00:34:09;;;;;;;7.60;4.13;;;16.40;99.90;;;;;;4966295;28;20202;-58
2022/06/22 00:36:59;;;;;;;5.80;4.90;;;16.40;99.90;;;;;;4965656;28;20214;-57
2022/06/22 00:39:30;;;;;;;8.23;4.53;;;16.30;99.90;;;;;;4962295;28;20196;-57
2022/06/22 00:42:18;;;;;;;8.33;5.33;;;16.30;99.90;;;;;;4967684;28;20187;-57
2022/06/22 00:44:46;;;;;;;7.50;5.23;;;16.30;99.90;;;;;;4965427;28;20278;-57
2022/06/22 00:47:21;;;;;;;6.93;5.27;;;16.30;99.90;;;;;;4967941;28;20195;-57
2022/06/22 00:49:47;;;;;;;12.00;6.90;;;16.30;99.90;;;;;;4951762;28;20260;-58
2022/06/22 00:52:32;;;;;;;14.80;10.33;;;16.30;99.90;;;;;;4967608;28;20589;-57
2022/06/22 00:54:57;;;;;;;8.17;5.40;;;16.30;99.90;;;;;;4952852;28;20218;-57
2022/06/22 00:57:29;;;;;;;9.73;5.40;;;16.30;99.90;;;;;;4967634;28;20185;-57
2022/06/22 01:00:01;;;;;;;11.03;5.53;;;16.30;99.90;;;;;;4952245;28;20692;-57
2022/06/22 01:02:46;;;;;;;9.40;5.63;;;16.20;99.90;;;;;;4978257;28;20719;-58
2022/06/22 01:05:31;;;;;;;7.50;4.67;;;16.20;99.90;;;;;;4964633;28;20673;-59
2022/06/22 01:08:23;;;;;;;6.60;5.53;;;16.20;99.90;;;;;;4961130;28;20248;-58
2022/06/22 01:10:58;;;;;;;9.10;4.53;;;16.10;99.90;;;;;;4968519;28;20212;-58
2022/06/22 01:13:30;;;;;;;9.07;5.20;;;16.10;99.90;;;;;;4948562;28;20185;-58
2022/06/22 01:16:00;;;;;;;4.43;4.03;;;16.10;99.90;;;;;;4952888;28;20206;-58
2022/06/22 01:18:36;;;;;;;8.40;3.20;;;16.10;99.90;;;;;;4967345;28;20653;-58
2022/06/22 01:21:23;;;;;;;7.50;4.30;;;16.10;99.90;;;;;;4965300;28;20255;-58
2022/06/22 01:24:30;;;;;;;7.03;3.73;;;16.00;99.90;;;;;;4947995;29;20194;-58
2022/06/22 01:27:21;;;;;;;11.83;3.60;;;16.00;99.90;;;;;;4960451;28;20196;-58
2022/06/22 01:29:53;;;;;;;3.63;2.83;;;15.90;99.90;;;;;;4965076;28;20240;-58
2022/06/22 01:32:29;;;;;;;5.83;2.87;;;15.90;99.90;;;;;;4967122;28;20182;-58
2022/06/22 01:34:59;;;;;;;5.70;3.17;;;15.90;99.90;;;;;;4958474;28;20265;-58
2022/06/22 01:37:32;;;;;;;6.03;3.73;;;15.90;99.90;;;;;;4966878;28;20187;-58
2022/06/22 01:40:06;;;;;;;4.47;2.70;;;15.80;99.90;;;;;;4964870;28;20218;-57
2022/06/22 01:42:52;;;;;;;6.10;2.60;;;15.80;99.90;;;;;;4967148;28;20270;-58
2022/06/22 01:45:25;;;;;;;3.37;2.80;;;15.80;99.90;;;;;;4954607;28;20206;-58
2022/06/22 01:48:00;;;;;;;3.13;2.43;;;15.80;99.90;;;;;;4951654;28;20203;-58
2022/06/22 01:50:36;;;;;;;4.23;2.80;;;15.70;99.90;;;;;;4962387;28;20209;-59
2022/06/22 01:53:12;;;;;;;7.50;5.70;;;15.70;99.90;;;;;;4949316;28;20177;-58
2022/06/22 01:55:56;;;;;;;4.10;2.97;;;15.70;99.90;;;;;;4955825;28;20389;-57
2022/06/22 01:58:39;;;;;;;5.73;3.10;;;15.70;99.90;;;;;;4947463;29;20665;-58
2022/06/22 02:01:22;;;;;;;2.70;2.50;;;15.60;99.90;;;;;;4964434;28;20256;-58
2022/06/22 02:04:22;;;;;;;5.37;3.37;;;15.60;99.90;;;;;;4954728;28;20190;-58
2022/06/22 02:09:59;;;;;;;4.37;3.43;;;15.40;99.90;;;;;;4947650;28;20194;-57
2022/06/22 02:12:28;;;;;;;3.53;3.17;;;15.40;99.90;;;;;;4966492;28;20198;-58
2022/06/22 02:15:04;;;;;;;6.33;3.50;;;15.40;99.90;;;;;;4964313;28;20197;-58
2022/06/22 02:17:34;;;;;;;2.87;2.60;;;15.30;99.90;;;;;;4965758;28;21034;-58
2022/06/22 02:20:24;;;;;;;4.67;3.47;;;15.30;99.90;;;;;;4949633;28;20264;-58
2022/06/22 02:22:52;;;;;;;4.90;2.37;;;15.20;99.90;;;;;;4966156;28;20217;-58
2022/06/22 02:25:19;;;;;;;3.67;2.90;;;15.20;99.90;;;;;;4963988;28;20289;-58
2022/06/22 02:27:45;;;;;;;3.53;3.10;;;15.10;99.90;;;;;;4966149;28;20277;-59
2022/06/22 02:30:11;;;;;;;6.23;3.30;;;15.10;99.90;;;;;;4963841;28;20223;-58
2022/06/22 02:32:40;;;;;;;9.07;3.80;;;15.10;99.90;;;;;;4965490;28;20194;-58
2022/06/22 02:35:09;;;;;;;8.90;3.80;;;15.10;99.90;;;;;;4964807;28;20233;-58
2022/06/22 02:37:40;;;;;;;8.40;4.00;;;15.10;99.90;;;;;;4966553;28;20197;-59
2022/06/22 02:40:14;;;;;;;7.80;4.07;;;15.10;99.90;;;;;;4950198;28;20612;-58
2022/06/22 02:45:24;;;;;;;6.07;3.87;;;15.00;99.90;;;;;;4961013;28;20910;-59
2022/06/22 02:48:12;;;;;;;7.40;3.97;;;15.00;99.90;;;;;;4965792;28;20210;-58
2022/06/22 02:50:49;;;;;;;7.13;3.90;;;14.90;99.90;;;;;;4963420;28;20201;-58
2022/06/22 02:53:27;;;;;;;5.53;3.83;;;15.00;99.90;;;;;;4965339;28;20788;-58
2022/06/22 02:55:54;;;;;;;8.43;3.97;;;14.90;99.90;;;;;;4954959;28;20674;-57
2022/06/22 02:58:26;;;;;;;6.13;3.90;;;14.90;99.90;;;;;;4965638;28;20201;-57
2022/06/22 03:00:52;;;;;;;5.77;3.33;;;14.90;99.90;;;;;;4966885;28;20692;-57
2022/06/22 03:03:18;;;;;;;7.47;4.50;;;14.90;99.90;;;;;;4969615;28;20909;-56
2022/06/22 03:05:48;;;;;;;9.80;4.43;;;14.90;99.90;;;;;;4967767;28;20542;-57
2022/06/22 03:08:14;;;;;;;5.07;4.20;;;15.00;99.90;;;;;;4969432;28;20679;-56
2022/06/22 03:10:56;;;;;;;8.10;4.23;;;15.00;99.90;;;;;;4967779;28;20669;-56
2022/06/22 03:13:28;;;;;;;9.00;5.13;;;15.10;99.90;;;;;;4957951;28;20251;-57
2022/06/22 03:15:54;;;;;;;11.73;4.90;;;15.10;99.90;;;;;;4967422;28;20209;-56
2022/06/22 03:18:24;;;;;;;7.13;4.57;;;15.10;99.90;;;;;;4954200;28;20292;-57
2022/06/22 03:21:01;;;;;;;9.67;4.83;;;15.10;99.90;;;;;;4967304;28;20245;-57
2022/06/22 03:23:51;;;;;;;6.57;4.53;;;15.00;99.90;;;;;;4958869;28;20187;-57
2022/06/22 03:26:21;;;;;;;7.53;5.20;;;15.10;99.90;;;;;;4963416;28;20236;-57
2022/06/22 03:28:58;;;;;;;7.77;5.30;;;15.00;99.90;;;;;;4969730;28;20897;-57
2022/06/22 03:31:30;;;;;;;7.20;5.13;;;15.00;99.90;;;;;;4961842;28;20216;-57
2022/06/22 03:34:15;;;;;;;53.27;34.47;;;15.00;99.90;;;;;;4950903;28;20275;-57
2022/06/22 03:36:53;;;;;;;7.37;5.47;;;15.00;99.90;;;;;;4954993;28;20770;-57
2022/06/22 03:39:22;;;;;;;7.37;4.67;;;15.00;99.90;;;;;;4950226;29;20652;-58
2022/06/22 03:41:57;;;;;;;6.73;4.33;;;15.00;99.90;;;;;;4966936;28;20722;-57
2022/06/22 03:44:29;;;;;;;8.63;4.63;;;15.00;99.90;;;;;;4949806;29;20187;-57
2022/06/22 03:47:02;;;;;;;8.00;5.30;;;15.00;99.90;;;;;;4965669;28;20272;-57
2022/06/22 03:49:35;;;;;;;9.63;4.67;;;15.00;99.90;;;;;;4954020;28;20214;-57
2022/06/22 03:52:12;;;;;;;9.33;4.90;;;15.00;99.90;;;;;;4948463;28;21030;-57
2022/06/22 03:54:48;;;;;;;7.47;4.27;;;15.00;99.90;;;;;;4963859;28;20191;-57
2022/06/22 03:57:18;;;;;;;7.40;5.30;;;15.00;99.90;;;;;;4968673;28;20224;-57
2022/06/22 03:59:46;;;;;;;6.73;4.53;;;15.00;99.90;;;;;;4968860;28;20305;-57
2022/06/22 04:02:12;;;;;;;6.13;4.63;;;15.00;99.90;;;;;;4966474;28;20269;-57
2022/06/22 04:04:37;;;;;;;5.97;4.97;;;15.00;99.90;;;;;;4968497;28;20201;-57
2022/06/22 04:07:03;;;;;;;7.50;4.10;;;15.10;99.90;;;;;;4966694;28;20328;-57
2022/06/22 04:09:30;;;;;;;6.80;4.23;;;15.10;99.90;;;;;;4968238;28;20289;-58
2022/06/22 04:12:12;;;;;;;6.40;4.30;;;15.10;99.90;;;;;;4966342;28;20201;-57
2022/06/22 04:14:54;;;;;;;10.30;4.33;;;15.10;99.90;;;;;;4967304;28;20191;-59
2022/06/22 04:17:42;;;;;;;7.30;3.83;;;15.10;99.90;;;;;;4968174;28;20285;-59
2022/06/22 04:20:10;;;;;;;7.63;4.20;;;15.20;99.90;;;;;;4949443;28;20229;-57
2022/06/22 04:22:42;;;;;;;6.07;4.30;;;15.20;99.90;;;;;;4968828;28;20224;-57
2022/06/22 04:25:28;;;;;;;7.03;5.10;;;15.30;99.90;;;;;;4949168;28;20194;-57
2022/06/22 04:27:56;;;;;;;6.30;4.33;;;15.30;99.90;;;;;;4968755;28;20189;-57
2022/06/22 04:30:26;;;;;;;7.50;5.00;;;15.30;99.90;;;;;;4966120;28;20648;-57
2022/06/22 04:33:08;;;;;;;8.93;5.30;;;15.40;99.90;;;;;;4968282;28;20229;-57
2022/06/22 04:35:55;;;;;;;9.77;4.93;;;15.50;99.90;;;;;;4952144;28;20202;-57
2022/06/22 04:38:32;;;;;;;6.93;4.57;;;15.60;99.90;;;;;;4967790;28;20201;-57
2022/06/22 04:41:06;;;;;;;5.30;4.30;;;15.60;99.90;;;;;;4955110;28;20217;-58
2022/06/22 04:43:32;;;;;;;9.33;4.17;;;15.60;99.90;;;;;;4949687;28;20654;-58
2022/06/22 04:45:58;;;;;;;8.17;5.13;;;15.70;99.90;;;;;;4965832;28;20608;-58
2022/06/22 04:48:37;;;;;;;7.37;4.47;;;15.80;99.90;;;;;;4967433;28;20269;-57
2022/06/22 04:51:05;;;;;;;8.73;4.80;;;15.80;99.90;;;;;;4956084;28;20197;-57
2022/06/22 04:53:34;;;;;;;5.17;3.90;;;15.90;99.90;;;;;;4967342;28;20221;-57
2022/06/22 04:56:07;;;;;;;10.20;4.87;;;16.00;99.90;;;;;;4965190;28;20264;-58
2022/06/22 04:58:43;;;;;;;6.13;4.67;;;16.00;99.90;;;;;;4957049;28;20193;-58
2022/06/22 05:01:42;;;;;;;9.37;5.27;;;16.10;99.90;;;;;;4959284;28;20308;-58
2022/06/22 05:04:18;;;;;;;6.70;4.03;;;16.20;99.90;;;;;;4951192;28;20206;-57
2022/06/22 05:06:55;;;;;;;8.10;4.40;;;16.30;99.90;;;;;;4961020;28;20733;-58
2022/06/22 05:09:29;;;;;;;6.27;4.73;;;16.40;99.90;;;;;;4966959;28;21000;-58
2022/06/22 05:11:55;;;;;;;7.43;4.63;;;16.50;99.90;;;;;;4961391;28;20683;-58
2022/06/22 05:14:27;;;;;;;5.37;4.63;;;16.60;99.90;;;;;;4967273;28;20191;-57
2022/06/22 05:17:04;;;;;;;3.93;3.63;;;16.70;99.90;;;;;;4964887;28;20277;-58
2022/06/22 05:19:39;;;;;;;4.87;4.00;;;16.80;99.90;;;;;;4966965;28;20772;-58
2022/06/22 05:22:15;;;;;;;4.53;3.53;;;16.90;99.90;;;;;;4954232;28;20215;-57
2022/06/22 05:24:45;;;;;;;8.20;3.80;;;17.00;99.90;;;;;;4947871;29;20278;-58
2022/06/22 05:27:14;;;;;;;8.10;3.87;;;17.10;99.90;;;;;;4964765;28;20439;-58
2022/06/22 05:29:55;;;;;;;6.77;4.57;;;17.20;99.90;;;;;;4966573;28;20250;-58
2022/06/22 05:32:34;;;;;;;7.70;5.07;;;17.40;99.90;;;;;;4963777;28;20720;-58
2022/06/22 05:35:07;;;;;;;5.90;3.80;;;17.50;99.90;;;;;;4948422;28;20685;-58
2022/06/22 05:37:37;;;;;;;6.77;3.87;;;17.60;99.90;;;;;;4959849;28;20210;-58
2022/06/22 05:40:04;;;;;;;9.17;5.27;;;17.80;99.90;;;;;;4966652;28;20255;-58
2022/06/22 05:42:31;;;;;;;5.53;4.30;;;17.90;99.90;;;;;;4964510;28;20318;-59
2022/06/22 05:44:57;;;;;;;5.50;3.60;;;18.00;99.90;;;;;;4966610;28;20625;-58
2022/06/22 05:47:31;;;;;;;9.03;5.43;;;18.20;99.90;;;;;;4963311;28;20231;-58
2022/06/22 05:50:37;;;;;;;7.83;3.60;;;18.30;99.90;;;;;;4966365;28;20196;-58
2022/06/22 05:53:11;;;;;;;6.27;3.63;;;18.40;99.90;;;;;;4960377;28;20215;-58
2022/06/22 05:55:45;;;;;;;6.87;3.40;;;18.60;99.90;;;;;;4954994;28;20205;-58
2022/06/22 05:58:13;;;;;;;5.80;3.87;;;18.80;99.90;;;;;;4966172;28;20192;-58
2022/06/22 06:00:49;;;;;;;6.13;3.87;;;19.00;99.90;;;;;;4964154;28;20235;-59
2022/06/22 06:03:26;;;;;;;6.53;3.53;;;19.20;99.90;;;;;;4966394;28;20386;-58
2022/06/22 06:05:58;;;;;;;7.07;3.63;;;19.40;99.90;;;;;;4950364;28;20201;-58
2022/06/22 06:08:36;;;;;;;4.50;3.60;;;19.50;99.90;;;;;;4966301;28;20782;-58
2022/06/22 06:11:04;;;;;;;5.33;3.53;;;19.70;99.90;;;;;;4951640;28;20225;-58
2022/06/22 06:13:38;;;;;;;5.10;3.67;;;19.70;99.90;;;;;;4948653;28;20192;-59
2022/06/22 06:16:11;;;;;;;3.47;2.90;;;19.70;99.90;;;;;;4963923;28;20287;-58
2022/06/22 06:18:40;;;;;;;6.93;2.57;;;19.80;99.90;;;;;;4966032;28;20292;-60
2022/06/22 06:21:13;;;;;;;6.23;2.43;;;19.90;99.90;;;;;;4963968;28;20592;-58
2022/06/22 06:23:43;;;;;;;2.43;2.07;;;20.10;98.70;;;;;;4966365;28;20639;-58
2022/06/22 06:29:22;;;;;;;2.97;2.33;;;20.30;97.70;;;;;;4965831;28;20204;-59
2022/06/22 06:32:03;;;;;;;2.83;1.73;;;20.20;97.00;;;;;;4956616;28;20232;-59
2022/06/22 06:34:47;;;;;;;3.33;1.73;;;20.30;96.70;;;;;;4960756;28;20222;-57
2022/06/22 06:37:36;;;;;;;1.53;1.30;;;20.40;95.70;;;;;;4959593;28;20213;-57
2022/06/22 06:40:02;;;;;;;4.17;1.87;;;20.50;93.80;;;;;;4955868;28;20215;-59
2022/06/22 06:42:40;;;;;;;2.00;1.30;;;20.50;93.20;;;;;;4964071;28;20204;-57
2022/06/22 06:45:17;;;;;;;2.60;1.07;;;20.50;90.60;;;;;;4960098;28;20225;-58
2022/06/22 06:47:47;;;;;;;4.93;2.20;;;20.50;88.10;;;;;;4963465;28;20212;-58
2022/06/22 06:50:22;;;;;;;3.80;1.57;;;20.50;90.00;;;;;;4965427;28;20201;-58
2022/06/22 06:53:14;;;;;;;4.60;1.90;;;20.50;88.50;;;;;;4963964;28;20202;-58
2022/06/22 06:55:48;;;;;;;2.83;1.60;;;20.60;88.70;;;;;;4946222;28;20196;-57
2022/06/22 06:58:18;;;;;;;1.73;1.27;;;20.60;88.10;;;;;;4965841;28;20220;-57
2022/06/22 07:00:45;;;;;;;5.43;1.90;;;20.70;89.00;;;;;;4963132;28;20233;-58
2022/06/22 07:03:20;;;;;;;3.67;1.70;;;20.80;89.70;;;;;;4965377;28;20189;-58
2022/06/22 07:05:47;;;;;;;2.27;1.50;;;20.90;90.00;;;;;;4947024;28;20252;-58
2022/06/22 07:08:19;;;;;;;2.20;1.50;;;21.00;89.10;;;;;;4965985;28;20173;-58
2022/06/22 07:10:58;;;;;;;2.73;1.40;;;21.20;87.30;;;;;;4963779;28;20249;-58
2022/06/22 07:13:49;;;;;;;2.03;1.20;;;21.40;86.00;;;;;;4965292;28;20272;-58
2022/06/22 07:16:19;;;;;;;6.00;1.70;;;21.50;83.70;;;;;;4950259;28;20202;-58
2022/06/22 07:18:47;;;;;;;3.23;1.70;;;21.70;81.40;;;;;;4965897;28;20221;-58
2022/06/22 07:21:22;;;;;;;3.40;1.20;;;21.80;80.90;;;;;;4963399;28;20260;-58
2022/06/22 07:23:59;;;;;;;2.90;1.47;;;21.90;80.50;;;;;;4965523;28;20221;-58
2022/06/22 07:26:51;;;;;;;1.10;0.95;;;21.80;80.20;;;;;;4956288;28;20201;-58
2022/06/22 07:29:33;;;;;;;1.48;1.38;;;22.00;77.60;;;;;;4965239;28;20193;-58
2022/06/22 07:32:13;;;;;;;13.23;2.20;;;22.00;77.20;;;;;;4956244;28;20408;-58
2022/06/22 07:35:00;;;;;;;1.98;1.48;;;21.90;76.70;;;;;;4952310;28;20220;-59
2022/06/22 07:37:40;;;;;;;6.65;1.65;;;21.80;77.60;;;;;;4960543;28;20233;-59
2022/06/22 07:40:11;;;;;;;8.05;1.63;;;21.70;76.50;;;;;;4946208;29;20646;-59
2022/06/22 07:42:36;;;;;;;1.83;1.40;;;21.60;76.90;;;;;;4960337;28;20756;-60
2022/06/22 07:45:03;;;;;;;5.68;1.80;;;21.70;77.50;;;;;;4965428;28;20194;-59
2022/06/22 07:47:36;;;;;;;3.53;1.45;;;21.70;76.90;;;;;;4966673;28;20201;-59
2022/06/22 07:50:20;;;;;;;4.65;1.67;;;21.90;77.10;;;;;;4949593;29;20222;-59
2022/06/22 07:52:57;;;;;;;3.75;1.80;;;21.90;77.40;;;;;;4964879;28;20268;-59
2022/06/22 07:55:46;;;;;;;2.97;1.90;;;22.00;77.90;;;;;;4953364;28;20260;-60
2022/06/22 07:58:27;;;;;;;6.55;1.88;;;22.30;74.40;;;;;;4968400;28;20676;-59
2022/06/22 08:00:57;;;;;;;2.67;1.87;;;22.20;73.00;;;;;;4963018;28;20360;-59
2022/06/22 08:03:44;;;;;;;2.50;1.33;;;22.40;73.50;;;;;;4976108;28;20186;-64
2022/06/22 08:06:20;;;;;;;3.90;1.67;;;22.50;70.90;;;;;;4969394;28;20774;-63
2022/06/22 08:09:11;;;;;;;2.40;1.60;;;22.40;70.00;;;;;;4976784;28;20190;-64
2022/06/22 08:11:40;;;;;;;1.43;1.20;;;22.30;72.10;;;;;;4934839;28;20205;-64
2022/06/22 08:14:22;;;;;;;2.45;1.52;;;22.30;71.80;;;;;;4982260;28;20193;-62
2022/06/22 08:16:51;;;;;;;1.67;1.30;;;22.40;71.50;;;;;;4955895;28;20494;-63
2022/06/22 08:19:18;;;;;;;5.20;1.93;;;22.40;71.60;;;;;;4906850;28;20194;-63
2022/06/22 08:21:47;;;;;;;2.97;1.30;;;22.50;72.20;;;;;;4966019;28;20219;-63
2022/06/22 08:24:16;;;;;;;2.47;1.30;;;22.60;70.80;;;;;;4968233;28;20204;-63
2022/06/22 08:26:42;;;;;;;3.97;1.63;;;22.70;70.60;;;;;;4966519;28;20205;-63
2022/06/22 08:29:08;;;;;;;2.92;1.58;;;22.70;69.40;;;;;;4968318;28;20193;-62
2022/06/22 08:31:52;;;;;;;4.03;1.40;;;22.60;68.80;;;;;;4966378;28;20296;-62
2022/06/22 08:34:26;;;;;;;3.83;1.52;;;22.70;69.20;;;;;;4959477;28;20201;-61
2022/06/22 08:36:57;;;;;;;4.43;1.60;;;22.70;70.00;;;;;;4966015;28;20212;-63
2022/06/22 08:39:29;;;;;;;5.47;2.07;;;22.70;69.30;;;;;;4948871;29;20245;-62
2022/06/22 08:42:38;;;;;;;2.73;1.50;;;22.70;63.70;;;;;;4955805;28;20221;-63
2022/06/22 08:45:47;;;;;;;4.78;1.27;;;22.70;65.10;;;;;;4965530;28;20192;-64
2022/06/22 08:48:38;;;;;;;2.45;1.38;;;22.60;64.70;;;;;;4958883;28;20217;-64
2022/06/22 08:51:23;;;;;;;2.15;1.40;;;22.70;65.50;;;;;;4952112;28;20189;-64
2022/06/22 08:54:11;;;;;;;3.80;2.00;;;22.90;65.80;;;;;;4967784;28;20198;-65
2022/06/22 08:56:51;;;;;;;2.33;1.50;;;23.00;65.90;;;;;;4959429;28;20583;-63
2022/06/22 09:00:05;;;;;;;1.50;1.40;;;22.90;63.40;;;;;;4967873;28;20204;-63
2022/06/22 09:02:55;;;;;;;2.10;1.45;;;22.90;63.10;;;;;;4959583;28;20252;-63
2022/06/22 09:05:48;;;;;;;3.33;1.38;;;23.00;63.80;;;;;;4955707;28;20221;-63
2022/06/22 09:08:24;;;;;;;4.05;1.77;;;23.00;63.00;;;;;;4965414;28;20205;-63
2022/06/22 09:11:06;;;;;;;5.05;1.80;;;23.00;62.50;;;;;;4948319;29;20600;-62
2022/06/22 09:14:07;;;;;;;4.40;1.83;;;23.10;65.10;;;;;;4961066;28;20292;-62
2022/06/22 09:16:50;;;;;;;5.97;1.50;;;23.10;63.30;;;;;;4951930;28;20261;-62
2022/06/22 09:19:46;;;;;;;1.67;1.50;;;23.10;61.60;;;;;;4967659;28;20219;-62
2022/06/22 09:22:23;;;;;;;2.15;1.00;;;23.20;62.00;;;;;;4956509;28;20290;-62
2022/06/22 09:25:21;;;;;;;2.80;1.40;;;23.40;60.10;;;;;;4948090;29;20600;-60
2022/06/22 09:28:03;;;;;;;1.17;1.17;;;23.40;60.10;;;;;;4961471;28;20222;-62
2022/06/22 09:31:00;;;;;;;3.13;1.15;;;23.40;59.00;;;;;;4955379;28;20190;-61
2022/06/22 09:34:04;;;;;;;1.85;1.63;;;23.40;59.90;;;;;;4967496;28;20201;-62
2022/06/22 09:36:59;;;;;;;3.15;1.70;;;23.60;61.10;;;;;;4954144;28;20739;-63
2022/06/22 09:39:51;;;;;;;1.40;1.33;;;23.90;61.30;;;;;;4955336;28;20194;-64
2022/06/22 09:42:19;;;;;;;4.22;1.40;;;24.00;59.60;;;;;;4959669;28;20205;-62
2022/06/22 09:44:59;;;;;;;2.70;1.38;;;24.00;59.10;;;;;;4965907;28;20724;-62
2022/06/22 09:47:33;;;;;;;1.45;1.35;;;24.00;59.10;;;;;;4957118;28;20691;-64
2022/06/22 09:50:36;;;;;;;3.85;1.40;;;24.00;60.10;;;;;;4947761;29;20248;-64
2022/06/22 09:53:26;;;;;;;5.90;1.70;;;24.00;60.90;;;;;;4961802;28;20623;-64
2022/06/22 09:59:13;;;;;;;2.55;1.38;;;23.90;58.30;;;;;;4955966;28;20313;-62
2022/06/22 10:02:04;;;;;;;1.48;1.13;;;23.80;58.50;;;;;;4968173;28;20233;-63
2022/06/22 10:04:50;;;;;;;2.58;1.50;;;24.10;60.20;;;;;;4975707;28;20261;-63
2022/06/22 10:07:54;;;;;;;2.97;1.30;;;24.30;58.30;;;;;;4972476;28;20210;-63
2022/06/22 10:10:50;;;;;;;4.97;1.98;;;24.40;58.80;;;;;;4973858;28;20557;-64
2022/06/22 10:13:55;;;;;;;2.70;1.48;;;24.40;58.30;;;;;;4970875;28;20214;-64
2022/06/22 10:17:00;;;;;;;3.47;1.65;;;24.40;58.90;;;;;;4959963;28;20676;-64
2022/06/22 10:19:54;;;;;;;3.20;1.20;;;24.50;58.30;;;;;;4959342;28;20200;-62
2022/06/22 10:22:45;;;;;;;2.17;1.30;;;24.70;58.00;;;;;;4964253;28;20214;-62
2022/06/22 10:25:38;;;;;;;1.77;1.35;;;25.00;57.00;;;;;;4948578;28;20192;-62
2022/06/22 10:28:37;;;;;;;2.75;1.40;;;24.80;56.50;;;;;;4965128;28;20201;-63
2022/06/22 10:31:16;;;;;;;1.88;1.38;;;24.90;56.70;;;;;;4971894;28;20653;-64
2022/06/22 10:34:09;;;;;;;2.70;1.58;;;25.00;56.30;;;;;;4969920;28;20272;-64
2022/06/22 10:37:04;;;;;;;3.25;1.17;;;24.90;54.20;;;;;;4948202;28;20291;-63
2022/06/22 10:39:36;;;;;;;3.13;1.48;;;24.90;53.80;;;;;;4965023;28;20558;-62
2022/06/22 10:45:33;;;;;;;2.88;1.60;;;25.00;56.60;;;;;;4946369;28;20224;-62
2022/06/22 10:48:09;;;;;;;2.58;1.27;;;25.10;56.60;;;;;;4958644;28;21086;-62
2022/06/22 10:50:58;;;;;;;4.25;1.38;;;25.20;57.90;;;;;;4945798;29;20196;-63
2022/06/22 10:53:26;;;;;;;4.43;1.58;;;25.30;58.40;;;;;;4962094;28;20321;-72
2022/06/22 10:56:20;;;;;;;1.65;1.08;;;25.30;55.70;;;;;;4968380;28;20196;-61
2022/06/22 10:59:16;;;;;;;1.30;1.20;;;25.40;54.90;;;;;;4965141;28;20672;-62
2022/06/22 11:01:49;;;;;;;1.80;1.20;;;25.70;52.40;;;;;;4958896;28;20225;-62
2022/06/22 11:04:57;;;;;;;3.70;1.70;;;26.00;55.10;;;;;;4973430;28;20506;-62
2022/06/22 11:07:38;;;;;;;5.13;1.90;;;27.00;53.60;;;;;;4973306;28;20205;-62
2022/06/22 11:10:22;;;;;;;5.70;1.73;;;28.20;49.70;;;;;;4972870;28;20170;-61
2022/06/22 11:13:05;;;;;;;3.58;1.50;;;28.80;47.80;;;;;;4959595;28;20216;-72
2022/06/22 11:16:01;;;;;;;2.80;1.98;;;29.70;45.50;;;;;;4955355;28;20192;-69
2022/06/22 11:18:57;;;;;;;3.20;1.88;;;30.50;44.80;;;;;;4961948;28;20202;-68
2022/06/22 11:21:28;;;;;;;3.15;2.35;;;31.50;42.40;;;;;;4947301;28;20214;-72
2022/06/22 11:24:20;;;;;;;3.92;2.20;;;31.60;40.70;;;;;;4968189;28;20193;-72
2022/06/22 11:33:16;;;;;;;3.00;2.33;;;33.00;37.60;;;;;;4960998;28;20239;-72
2022/06/22 11:36:03;;;;;;;2.97;2.10;;;32.30;36.60;;;;;;4956418;28;20274;-72
2022/06/22 11:38:43;;;;;;;2.97;2.25;;;33.10;36.20;;;;;;4962882;28;20205;-73
2022/06/22 11:41:54;;;;;;;1.95;1.50;;;34.40;37.50;;;;;;4969469;28;20209;-73
2022/06/22 11:44:38;;;;;;;2.10;1.60;;;35.60;33.70;;;;;;4936505;28;20197;-72
2022/06/22 11:47:52;;;;;;;3.33;1.88;;;36.50;32.70;;;;;;4957572;28;20201;-72
2022/06/22 11:50:43;;;;;;;3.83;2.75;;;37.60;31.00;;;;;;4965016;28;20234;-72
2022/06/22 11:53:32;;;;;;;2.40;2.20;;;38.40;30.50;;;;;;4967253;28;20232;-72
2022/06/22 11:56:03;;;;;;;4.47;2.28;;;39.20;28.50;;;;;;4961925;28;20239;-72
2022/06/22 11:59:00;;;;;;;2.92;2.38;;;39.80;28.60;;;;;;4964086;28;20260;-72
2022/06/22 12:01:53;;;;;;;5.57;2.58;;;40.20;28.20;;;;;;4961513;28;20229;-72
2022/06/22 12:04:41;;;;;;;3.97;2.97;;;40.60;28.30;;;;;;4949848;29;20259;-72
2022/06/22 12:07:21;;;;;;;4.32;2.78;;;41.20;28.20;;;;;;4953247;28;20226;-72
2022/06/22 12:10:00;;;;;;;5.60;3.22;;;41.70;26.90;;;;;;4968453;28;20538;-72
2022/06/22 12:12:58;;;;;;;7.82;4.57;;;41.50;25.70;;;;;;4954919;28;20202;-72
2022/06/22 12:15:55;;;;;;;6.22;3.42;;;41.50;26.40;;;;;;4968614;28;20197;-72
2022/06/22 12:18:30;;;;;;;5.60;3.78;;;41.40;26.10;;;;;;4966546;28;20204;-72
2022/06/22 12:21:31;;;;;;;4.13;2.60;;;41.70;25.90;;;;;;4948985;29;20220;-72
2022/06/22 12:24:02;;;;;;;3.55;2.70;;;41.90;25.60;;;;;;4968533;28;20208;-72
2022/06/22 12:26:51;;;;;;;6.95;3.55;;;41.60;25.70;;;;;;4968136;28;20192;-72
2022/06/22 12:29:36;;;;;;;17.00;11.10;;;41.90;24.90;;;;;;4952023;28;20269;-72
2022/06/22 12:32:13;;;;;;;9.90;4.70;;;41.70;25.00;;;;;;4960420;28;20613;-72
2022/06/22 12:34:53;;;;;;;7.45;5.00;;;41.50;24.70;;;;;;4968627;28;20551;-72
2022/06/22 12:37:30;;;;;;;4.97;4.38;;;41.60;25.30;;;;;;4952932;28;20770;-72
2022/06/22 12:40:01;;;;;;;3.60;2.25;;;41.70;24.00;;;;;;4967980;28;20225;-72
2022/06/22 12:42:49;;;;;;;2.65;2.45;;;41.10;25.30;;;;;;4953561;28;20654;-72
2022/06/22 12:45:55;;;;;;;4.15;2.10;;;40.90;24.10;;;;;;4967895;28;20253;-72
2022/06/22 12:48:49;;;;;;;4.47;2.03;;;40.20;25.50;;;;;;4958389;28;20221;-72
2022/06/22 12:51:26;;;;;;;6.55;2.78;;;40.60;25.00;;;;;;4948444;29;20234;-73
2022/06/22 12:54:00;;;;;;;6.80;3.83;;;39.80;25.70;;;;;;4964441;28;20205;-73
2022/06/22 12:56:42;;;;;;;2.25;1.83;;;39.80;24.80;;;;;;4949039;29;20193;-73
2022/06/22 12:59:13;;;;;;;2.95;2.42;;;39.90;24.80;;;;;;4950327;28;20182;-72
2022/06/22 13:01:40;;;;;;;2.22;2.03;;;39.60;24.60;;;;;;4961026;28;20222;-72
2022/06/22 13:04:19;;;;;;;3.67;1.90;;;39.20;25.10;;;;;;4958253;28;20667;-71
2022/06/22 13:06:53;;;;;;;2.75;2.45;;;38.60;25.40;;;;;;4947139;28;20205;-71
2022/06/22 13:09:20;;;;;;;4.30;2.20;;;38.00;25.30;;;;;;4967739;28;20659;-71
2022/06/22 13:11:48;;;;;;;3.28;2.63;;;37.20;25.60;;;;;;4965648;28;20263;-71
2022/06/22 13:14:31;;;;;;;2.38;2.17;;;36.30;26.40;;;;;;4967956;28;20244;-71
2022/06/22 13:17:19;;;;;;;4.57;3.63;;;36.80;27.30;;;;;;4955522;28;20536;-72
2022/06/22 13:20:22;;;;;;;4.65;2.70;;;37.60;26.00;;;;;;4967545;28;20256;-72
2022/06/22 13:23:16;;;;;;;4.22;2.53;;;38.10;26.50;;;;;;4965721;28;20209;-71
2022/06/22 13:25:49;;;;;;;2.53;2.30;;;39.10;26.30;;;;;;4966397;28;20629;-72
2022/06/22 13:28:42;;;;;;;4.63;3.10;;;39.30;25.50;;;;;;4958061;28;20730;-73
2022/06/22 13:31:16;;;;;;;3.70;1.88;;;40.10;25.60;;;;;;4953418;28;20193;-72
2022/06/22 13:33:49;;;;;;;5.53;3.80;;;40.20;24.60;;;;;;4961205;28;20645;-70
2022/06/22 13:36:35;;;;;;;2.70;2.42;;;39.20;25.50;;;;;;4955192;28;20188;-69
2022/06/22 13:39:28;;;;;;;4.47;2.40;;;39.00;25.70;;;;;;4963754;28;20259;-71
2022/06/22 13:42:06;;;;;;;7.18;3.80;;;38.80;26.20;;;;;;4954406;28;20205;-71
2022/06/22 13:45:03;;;;;;;1.77;1.65;;;39.10;26.00;;;;;;4966668;28;20272;-69
2022/06/22 13:47:58;;;;;;;3.50;2.63;;;38.80;25.30;;;;;;4961144;28;20225;-71
2022/06/22 13:50:34;;;;;;;5.65;3.05;;;36.90;26.60;;;;;;4967399;28;20193;-72
2022/06/22 13:53:27;;;;;;;4.15;3.45;;;37.60;27.00;;;;;;4954944;28;20284;-67
2022/06/22 13:56:24;;;;;;;5.90;3.45;;;38.50;27.10;;;;;;4967243;28;20196;-70
2022/06/22 13:58:53;;;;;;;7.88;4.95;;;39.40;25.60;;;;;;4961742;28;20256;-69
2022/06/22 14:01:42;;;;;;;4.68;2.90;;;40.20;25.30;;;;;;4963373;28;20268;-70
2022/06/22 14:04:29;;;;;;;8.70;6.70;;;40.60;25.60;;;;;;4964032;28;20257;-69
2022/06/22 14:07:02;;;;;;;4.85;4.10;;;40.80;25.70;;;;;;4949667;28;20713;-70
2022/06/22 14:09:40;;;;;;;10.90;4.65;;;41.00;25.50;;;;;;4966369;28;20325;-70
2022/06/22 14:12:25;;;;;;;14.70;10.82;;;41.30;24.40;;;;;;4946700;28;20208;-71